sensor_id;sensor_type;location;lat;lon;timestamp;P1;durP1;ratioP1;P2;durP2;ratioP2
4533;SDS011;2279;51.448;7.306;2022-08-19T00:01:43;20.97;;;15.57;;
4533;SDS011;2279;51.448;7.306;2022-08-19T00:04:10;28.60;;;16.20;;
4533;SDS011;2279;51.448;7.306;2022-08-19T00:06:37;26.37;;;16.00;;
4533;SDS011;2279;51.448;7.306;2022-08-19T00:09:04;20.20;;;15.87;;
4533;SDS011;2279;51.448;7.306;2022-08-19T00:11:31;19.97;;;15.10;;
4533;SDS011;2279;51.448;7.306;2022-08-19T00:13:57;20.67;;;15.47;;
4533;SDS011;2279;51.448;7.306;2022-08-19T00:16:24;19.07;;;14.30;;
4533;SDS011;2279;51.448;7.306;2022-08-19T00:18:50;18.00;;;14.10;;
4533;SDS011;2279;51.448;7.306;2022-08-19T00:21:16;17.17;;;15.13;;
4533;SDS011;2279;51.448;7.306;2022-08-19T00:23:42;17.40;;;13.53;;
4533;SDS011;2279;51.448;7.306;2022-08-19T00:26:10;14.60;;;12.80;;
4533;SDS011;2279;51.448;7.306;2022-08-19T00:28:36;15.30;;;11.67;;
4533;SDS011;2279;51.448;7.306;2022-08-19T00:31:03;13.50;;;12.00;;
4533;SDS011;2279;51.448;7.306;2022-08-19T00:33:29;18.00;;;12.70;;
4533;SDS011;2279;51.448;7.306;2022-08-19T00:35:57;13.97;;;11.70;;
4533;SDS011;2279;51.448;7.306;2022-08-19T00:38:23;15.40;;;13.03;;
4533;SDS011;2279;51.448;7.306;2022-08-19T00:40:49;18.27;;;14.47;;
4533;SDS011;2279;51.448;7.306;2022-08-19T00:43:18;18.40;;;13.30;;
4533;SDS011;2279;51.448;7.306;2022-08-19T00:45:44;18.63;;;14.03;;
4533;SDS011;2279;51.448;7.306;2022-08-19T00:48:10;16.03;;;13.53;;
4533;SDS011;2279;51.448;7.306;2022-08-19T00:50:36;13.50;;;11.90;;
4533;SDS011;2279;51.448;7.306;2022-08-19T00:53:05;17.27;;;13.20;;
4533;SDS011;2279;51.448;7.306;2022-08-19T00:55:32;16.10;;;13.60;;
4533;SDS011;2279;51.448;7.306;2022-08-19T00:58:00;19.07;;;13.93;;
4533;SDS011;2279;51.448;7.306;2022-08-19T01:00:28;18.80;;;14.23;;
4533;SDS011;2279;51.448;7.306;2022-08-19T01:02:55;17.20;;;13.73;;
4533;SDS011;2279;51.448;7.306;2022-08-19T01:05:23;17.07;;;13.00;;
4533;SDS011;2279;51.448;7.306;2022-08-19T01:07:50;15.40;;;13.47;;
4533;SDS011;2279;51.448;7.306;2022-08-19T01:10:17;29.90;;;13.87;;
4533;SDS011;2279;51.448;7.306;2022-08-19T01:12:45;26.23;;;13.87;;
4533;SDS011;2279;51.448;7.306;2022-08-19T01:15:12;22.00;;;14.93;;
4533;SDS011;2279;51.448;7.306;2022-08-19T01:17:39;20.13;;;15.20;;
4533;SDS011;2279;51.448;7.306;2022-08-19T01:20:07;20.53;;;15.40;;
4533;SDS011;2279;51.448;7.306;2022-08-19T01:22:40;26.63;;;11.97;;
4533;SDS011;2279;51.448;7.306;2022-08-19T01:25:08;17.30;;;13.60;;
4533;SDS011;2279;51.448;7.306;2022-08-19T01:27:38;15.50;;;13.40;;
4533;SDS011;2279;51.448;7.306;2022-08-19T01:30:05;15.77;;;12.87;;
4533;SDS011;2279;51.448;7.306;2022-08-19T01:32:32;14.40;;;12.90;;
4533;SDS011;2279;51.448;7.306;2022-08-19T01:34:58;15.60;;;12.43;;
4533;SDS011;2279;51.448;7.306;2022-08-19T01:37:26;14.57;;;12.83;;
4533;SDS011;2279;51.448;7.306;2022-08-19T01:39:52;21.40;;;13.20;;
4533;SDS011;2279;51.448;7.306;2022-08-19T01:42:18;25.33;;;16.60;;
4533;SDS011;2279;51.448;7.306;2022-08-19T01:44:44;23.60;;;18.13;;
4533;SDS011;2279;51.448;7.306;2022-08-19T01:47:11;29.67;;;20.80;;
4533;SDS011;2279;51.448;7.306;2022-08-19T01:49:37;31.27;;;22.83;;
4533;SDS011;2279;51.448;7.306;2022-08-19T01:52:03;30.80;;;22.20;;
4533;SDS011;2279;51.448;7.306;2022-08-19T01:54:29;29.70;;;23.40;;
4533;SDS011;2279;51.448;7.306;2022-08-19T01:57:06;31.30;;;23.27;;
4533;SDS011;2279;51.448;7.306;2022-08-19T01:59:33;33.17;;;20.70;;
4533;SDS011;2279;51.448;7.306;2022-08-19T02:02:01;30.17;;;20.70;;
4533;SDS011;2279;51.448;7.306;2022-08-19T02:04:27;26.23;;;19.20;;
4533;SDS011;2279;51.448;7.306;2022-08-19T02:06:53;30.20;;;20.30;;
4533;SDS011;2279;51.448;7.306;2022-08-19T02:09:19;27.33;;;19.33;;
4533;SDS011;2279;51.448;7.306;2022-08-19T02:11:45;26.97;;;19.10;;
4533;SDS011;2279;51.448;7.306;2022-08-19T02:14:11;23.33;;;17.57;;
4533;SDS011;2279;51.448;7.306;2022-08-19T02:16:38;25.30;;;18.10;;
4533;SDS011;2279;51.448;7.306;2022-08-19T02:19:05;22.37;;;17.50;;
4533;SDS011;2279;51.448;7.306;2022-08-19T02:21:31;18.00;;;15.20;;
4533;SDS011;2279;51.448;7.306;2022-08-19T02:23:57;21.20;;;17.33;;
4533;SDS011;2279;51.448;7.306;2022-08-19T02:26:23;23.80;;;17.67;;
4533;SDS011;2279;51.448;7.306;2022-08-19T02:28:51;23.67;;;16.67;;
4533;SDS011;2279;51.448;7.306;2022-08-19T02:31:19;23.40;;;16.70;;
4533;SDS011;2279;51.448;7.306;2022-08-19T02:33:46;28.07;;;17.70;;
4533;SDS011;2279;51.448;7.306;2022-08-19T02:36:12;24.97;;;16.30;;
4533;SDS011;2279;51.448;7.306;2022-08-19T02:38:39;22.37;;;15.93;;
4533;SDS011;2279;51.448;7.306;2022-08-19T02:41:07;22.33;;;16.53;;
4533;SDS011;2279;51.448;7.306;2022-08-19T02:43:35;19.47;;;16.63;;
4533;SDS011;2279;51.448;7.306;2022-08-19T02:46:02;24.47;;;16.73;;
4533;SDS011;2279;51.448;7.306;2022-08-19T02:48:28;20.63;;;16.17;;
4533;SDS011;2279;51.448;7.306;2022-08-19T02:50:54;21.60;;;16.70;;
4533;SDS011;2279;51.448;7.306;2022-08-19T02:53:21;23.03;;;17.37;;
4533;SDS011;2279;51.448;7.306;2022-08-19T02:55:48;22.70;;;18.40;;
4533;SDS011;2279;51.448;7.306;2022-08-19T02:58:15;22.47;;;17.17;;
4533;SDS011;2279;51.448;7.306;2022-08-19T03:00:45;27.40;;;16.73;;
4533;SDS011;2279;51.448;7.306;2022-08-19T03:03:11;19.37;;;15.20;;
4533;SDS011;2279;51.448;7.306;2022-08-19T03:05:38;22.97;;;15.63;;
4533;SDS011;2279;51.448;7.306;2022-08-19T03:08:05;22.70;;;17.53;;
4533;SDS011;2279;51.448;7.306;2022-08-19T03:10:32;25.27;;;16.00;;
4533;SDS011;2279;51.448;7.306;2022-08-19T03:12:58;16.63;;;14.67;;
4533;SDS011;2279;51.448;7.306;2022-08-19T03:15:24;17.50;;;14.67;;
4533;SDS011;2279;51.448;7.306;2022-08-19T03:17:51;19.17;;;15.07;;
4533;SDS011;2279;51.448;7.306;2022-08-19T03:20:17;17.60;;;14.60;;
4533;SDS011;2279;51.448;7.306;2022-08-19T03:22:43;25.07;;;16.40;;
4533;SDS011;2279;51.448;7.306;2022-08-19T03:25:09;22.07;;;16.40;;
4533;SDS011;2279;51.448;7.306;2022-08-19T03:27:36;21.00;;;16.90;;
4533;SDS011;2279;51.448;7.306;2022-08-19T03:30:02;20.77;;;17.53;;
4533;SDS011;2279;51.448;7.306;2022-08-19T03:32:29;20.47;;;16.90;;
4533;SDS011;2279;51.448;7.306;2022-08-19T03:34:55;21.30;;;16.30;;
4533;SDS011;2279;51.448;7.306;2022-08-19T03:37:21;21.50;;;15.90;;
4533;SDS011;2279;51.448;7.306;2022-08-19T03:39:47;18.60;;;14.77;;
4533;SDS011;2279;51.448;7.306;2022-08-19T03:42:13;21.07;;;14.97;;
4533;SDS011;2279;51.448;7.306;2022-08-19T03:44:41;20.73;;;15.20;;
4533;SDS011;2279;51.448;7.306;2022-08-19T03:47:09;18.30;;;14.30;;
4533;SDS011;2279;51.448;7.306;2022-08-19T03:49:39;22.90;;;15.23;;
4533;SDS011;2279;51.448;7.306;2022-08-19T03:52:05;20.47;;;14.63;;
4533;SDS011;2279;51.448;7.306;2022-08-19T03:54:34;19.80;;;16.47;;
4533;SDS011;2279;51.448;7.306;2022-08-19T03:57:00;21.10;;;15.40;;
4533;SDS011;2279;51.448;7.306;2022-08-19T03:59:27;22.60;;;15.83;;
4533;SDS011;2279;51.448;7.306;2022-08-19T04:01:58;18.03;;;14.67;;
4533;SDS011;2279;51.448;7.306;2022-08-19T04:04:25;19.90;;;14.77;;
4533;SDS011;2279;51.448;7.306;2022-08-19T04:06:51;16.07;;;14.37;;
4533;SDS011;2279;51.448;7.306;2022-08-19T04:09:17;19.13;;;16.20;;
4533;SDS011;2279;51.448;7.306;2022-08-19T04:11:45;18.10;;;15.53;;
4533;SDS011;2279;51.448;7.306;2022-08-19T04:14:12;20.80;;;14.47;;
4533;SDS011;2279;51.448;7.306;2022-08-19T04:16:39;18.63;;;15.00;;
4533;SDS011;2279;51.448;7.306;2022-08-19T04:19:05;16.33;;;14.60;;
4533;SDS011;2279;51.448;7.306;2022-08-19T04:21:32;16.07;;;13.90;;
4533;SDS011;2279;51.448;7.306;2022-08-19T04:23:58;17.00;;;14.30;;
4533;SDS011;2279;51.448;7.306;2022-08-19T04:26:25;17.67;;;14.30;;
4533;SDS011;2279;51.448;7.306;2022-08-19T04:28:52;21.90;;;15.10;;
4533;SDS011;2279;51.448;7.306;2022-08-19T04:31:21;21.43;;;14.40;;
4533;SDS011;2279;51.448;7.306;2022-08-19T04:33:47;18.30;;;13.83;;
4533;SDS011;2279;51.448;7.306;2022-08-19T04:36:20;17.50;;;14.90;;
4533;SDS011;2279;51.448;7.306;2022-08-19T04:38:47;17.73;;;13.60;;
4533;SDS011;2279;51.448;7.306;2022-08-19T04:41:13;21.30;;;14.53;;
4533;SDS011;2279;51.448;7.306;2022-08-19T04:43:58;21.40;;;15.13;;
4533;SDS011;2279;51.448;7.306;2022-08-19T04:46:24;21.27;;;15.93;;
4533;SDS011;2279;51.448;7.306;2022-08-19T04:48:50;26.63;;;18.50;;
4533;SDS011;2279;51.448;7.306;2022-08-19T04:51:16;18.53;;;13.33;;
4533;SDS011;2279;51.448;7.306;2022-08-19T04:53:42;22.90;;;15.87;;
4533;SDS011;2279;51.448;7.306;2022-08-19T04:56:09;20.67;;;17.47;;
4533;SDS011;2279;51.448;7.306;2022-08-19T04:58:36;26.40;;;17.30;;
4533;SDS011;2279;51.448;7.306;2022-08-19T05:01:03;18.50;;;16.10;;
4533;SDS011;2279;51.448;7.306;2022-08-19T05:03:29;19.90;;;15.67;;
4533;SDS011;2279;51.448;7.306;2022-08-19T05:05:59;19.53;;;15.20;;
4533;SDS011;2279;51.448;7.306;2022-08-19T05:08:29;20.80;;;15.10;;
4533;SDS011;2279;51.448;7.306;2022-08-19T05:10:55;21.80;;;16.03;;
4533;SDS011;2279;51.448;7.306;2022-08-19T05:13:22;20.63;;;15.50;;
4533;SDS011;2279;51.448;7.306;2022-08-19T05:15:56;23.30;;;16.90;;
4533;SDS011;2279;51.448;7.306;2022-08-19T05:18:22;17.03;;;14.60;;
4533;SDS011;2279;51.448;7.306;2022-08-19T05:21:08;21.67;;;15.67;;
4533;SDS011;2279;51.448;7.306;2022-08-19T05:23:53;18.97;;;13.63;;
4533;SDS011;2279;51.448;7.306;2022-08-19T05:26:19;14.77;;;12.47;;
4533;SDS011;2279;51.448;7.306;2022-08-19T05:28:45;17.80;;;15.10;;
4533;SDS011;2279;51.448;7.306;2022-08-19T05:31:11;18.43;;;14.20;;
4533;SDS011;2279;51.448;7.306;2022-08-19T05:33:37;17.50;;;14.90;;
4533;SDS011;2279;51.448;7.306;2022-08-19T05:36:04;16.30;;;13.20;;
4533;SDS011;2279;51.448;7.306;2022-08-19T05:38:32;18.63;;;14.20;;
4533;SDS011;2279;51.448;7.306;2022-08-19T05:40:58;23.83;;;14.80;;
4533;SDS011;2279;51.448;7.306;2022-08-19T05:43:24;17.50;;;14.30;;
4533;SDS011;2279;51.448;7.306;2022-08-19T05:45:50;20.50;;;15.60;;
4533;SDS011;2279;51.448;7.306;2022-08-19T05:48:16;18.43;;;16.17;;
4533;SDS011;2279;51.448;7.306;2022-08-19T05:50:45;18.63;;;15.97;;
4533;SDS011;2279;51.448;7.306;2022-08-19T05:53:15;21.67;;;15.80;;
4533;SDS011;2279;51.448;7.306;2022-08-19T05:55:41;18.60;;;15.47;;
4533;SDS011;2279;51.448;7.306;2022-08-19T05:58:07;18.03;;;14.40;;
4533;SDS011;2279;51.448;7.306;2022-08-19T06:00:33;18.83;;;14.53;;
4533;SDS011;2279;51.448;7.306;2022-08-19T06:03:00;22.40;;;16.00;;
4533;SDS011;2279;51.448;7.306;2022-08-19T06:05:28;20.50;;;14.93;;
4533;SDS011;2279;51.448;7.306;2022-08-19T06:07:54;19.57;;;14.90;;
4533;SDS011;2279;51.448;7.306;2022-08-19T06:10:20;16.70;;;14.90;;
4533;SDS011;2279;51.448;7.306;2022-08-19T06:12:47;20.83;;;16.50;;
4533;SDS011;2279;51.448;7.306;2022-08-19T06:15:13;17.30;;;15.50;;
4533;SDS011;2279;51.448;7.306;2022-08-19T06:17:40;25.93;;;16.73;;
4533;SDS011;2279;51.448;7.306;2022-08-19T06:20:08;18.87;;;15.70;;
4533;SDS011;2279;51.448;7.306;2022-08-19T06:22:42;17.37;;;14.57;;
4533;SDS011;2279;51.448;7.306;2022-08-19T06:25:09;20.50;;;14.67;;
4533;SDS011;2279;51.448;7.306;2022-08-19T06:27:35;19.03;;;15.53;;
4533;SDS011;2279;51.448;7.306;2022-08-19T06:30:02;19.20;;;14.67;;
4533;SDS011;2279;51.448;7.306;2022-08-19T06:32:29;16.70;;;13.37;;
4533;SDS011;2279;51.448;7.306;2022-08-19T06:34:55;16.70;;;12.73;;
4533;SDS011;2279;51.448;7.306;2022-08-19T06:37:21;15.73;;;13.97;;
4533;SDS011;2279;51.448;7.306;2022-08-19T06:39:47;15.20;;;13.57;;
4533;SDS011;2279;51.448;7.306;2022-08-19T06:42:13;16.63;;;13.23;;
4533;SDS011;2279;51.448;7.306;2022-08-19T06:44:42;16.30;;;14.57;;
4533;SDS011;2279;51.448;7.306;2022-08-19T06:47:13;17.23;;;14.77;;
4533;SDS011;2279;51.448;7.306;2022-08-19T06:49:40;19.60;;;15.00;;
4533;SDS011;2279;51.448;7.306;2022-08-19T06:52:07;15.03;;;13.53;;
4533;SDS011;2279;51.448;7.306;2022-08-19T06:54:33;15.73;;;14.10;;
4533;SDS011;2279;51.448;7.306;2022-08-19T06:57:01;18.13;;;14.63;;
4533;SDS011;2279;51.448;7.306;2022-08-19T06:59:27;19.10;;;14.33;;
4533;SDS011;2279;51.448;7.306;2022-08-19T07:01:56;18.43;;;14.47;;
4533;SDS011;2279;51.448;7.306;2022-08-19T07:04:24;13.00;;;11.70;;
4533;SDS011;2279;51.448;7.306;2022-08-19T07:06:56;23.53;;;15.90;;
4533;SDS011;2279;51.448;7.306;2022-08-19T07:09:23;18.10;;;14.30;;
4533;SDS011;2279;51.448;7.306;2022-08-19T07:11:49;15.83;;;13.30;;
4533;SDS011;2279;51.448;7.306;2022-08-19T07:14:17;14.20;;;12.70;;
4533;SDS011;2279;51.448;7.306;2022-08-19T07:16:44;14.47;;;13.07;;
4533;SDS011;2279;51.448;7.306;2022-08-19T07:19:11;16.73;;;14.40;;
4533;SDS011;2279;51.448;7.306;2022-08-19T07:21:37;16.27;;;13.30;;
4533;SDS011;2279;51.448;7.306;2022-08-19T07:24:03;12.33;;;11.03;;
4533;SDS011;2279;51.448;7.306;2022-08-19T07:26:30;12.40;;;11.30;;
4533;SDS011;2279;51.448;7.306;2022-08-19T07:28:57;18.63;;;11.60;;
4533;SDS011;2279;51.448;7.306;2022-08-19T07:31:25;11.83;;;10.63;;
4533;SDS011;2279;51.448;7.306;2022-08-19T07:33:51;12.30;;;11.00;;
4533;SDS011;2279;51.448;7.306;2022-08-19T07:36:20;12.97;;;11.63;;
4533;SDS011;2279;51.448;7.306;2022-08-19T07:38:47;14.97;;;12.53;;
4533;SDS011;2279;51.448;7.306;2022-08-19T07:41:15;14.90;;;12.90;;
4533;SDS011;2279;51.448;7.306;2022-08-19T07:43:41;14.20;;;12.70;;
4533;SDS011;2279;51.448;7.306;2022-08-19T07:46:08;12.63;;;11.30;;
4533;SDS011;2279;51.448;7.306;2022-08-19T07:48:34;11.30;;;10.10;;
4533;SDS011;2279;51.448;7.306;2022-08-19T07:51:02;12.70;;;8.87;;
4533;SDS011;2279;51.448;7.306;2022-08-19T07:53:29;10.60;;;9.50;;
4533;SDS011;2279;51.448;7.306;2022-08-19T07:55:55;11.53;;;8.83;;
4533;SDS011;2279;51.448;7.306;2022-08-19T07:58:28;10.40;;;9.27;;
4533;SDS011;2279;51.448;7.306;2022-08-19T08:00:54;9.70;;;7.37;;
4533;SDS011;2279;51.448;7.306;2022-08-19T08:03:20;8.30;;;7.47;;
4533;SDS011;2279;51.448;7.306;2022-08-19T08:06:07;9.67;;;7.03;;
4533;SDS011;2279;51.448;7.306;2022-08-19T08:08:52;7.63;;;6.47;;
4533;SDS011;2279;51.448;7.306;2022-08-19T08:11:57;8.73;;;6.00;;
4533;SDS011;2279;51.448;7.306;2022-08-19T08:14:25;7.10;;;6.20;;
4533;SDS011;2279;51.448;7.306;2022-08-19T08:16:51;7.67;;;5.90;;
4533;SDS011;2279;51.448;7.306;2022-08-19T08:19:21;6.00;;;5.50;;
4533;SDS011;2279;51.448;7.306;2022-08-19T08:21:48;9.03;;;5.60;;
4533;SDS011;2279;51.448;7.306;2022-08-19T08:24:14;10.20;;;9.00;;
4533;SDS011;2279;51.448;7.306;2022-08-19T08:26:41;9.60;;;7.83;;
4533;SDS011;2279;51.448;7.306;2022-08-19T08:29:08;9.47;;;6.00;;
4533;SDS011;2279;51.448;7.306;2022-08-19T08:31:38;8.33;;;7.30;;
4533;SDS011;2279;51.448;7.306;2022-08-19T08:34:04;10.30;;;9.17;;
4533;SDS011;2279;51.448;7.306;2022-08-19T08:36:30;11.60;;;9.40;;
4533;SDS011;2279;51.448;7.306;2022-08-19T08:38:58;11.77;;;10.67;;
4533;SDS011;2279;51.448;7.306;2022-08-19T08:41:35;11.57;;;10.43;;
4533;SDS011;2279;51.448;7.306;2022-08-19T08:44:03;15.37;;;11.93;;
4533;SDS011;2279;51.448;7.306;2022-08-19T08:49:02;9.70;;;8.03;;
4533;SDS011;2279;51.448;7.306;2022-08-19T08:51:34;12.50;;;9.47;;
4533;SDS011;2279;51.448;7.306;2022-08-19T08:54:01;18.30;;;12.60;;
4533;SDS011;2279;51.448;7.306;2022-08-19T08:56:28;12.67;;;11.13;;
4533;SDS011;2279;51.448;7.306;2022-08-19T08:58:59;16.10;;;13.60;;
4533;SDS011;2279;51.448;7.306;2022-08-19T09:01:26;13.37;;;10.97;;
4533;SDS011;2279;51.448;7.306;2022-08-19T09:03:53;11.57;;;9.07;;
4533;SDS011;2279;51.448;7.306;2022-08-19T09:09:04;11.57;;;9.50;;
4533;SDS011;2279;51.448;7.306;2022-08-19T09:16:32;13.60;;;9.60;;
4533;SDS011;2279;51.448;7.306;2022-08-19T09:19:02;12.10;;;10.70;;
4533;SDS011;2279;51.448;7.306;2022-08-19T09:21:29;11.33;;;9.57;;
4533;SDS011;2279;51.448;7.306;2022-08-19T09:23:55;11.70;;;9.83;;
4533;SDS011;2279;51.448;7.306;2022-08-19T09:26:22;8.53;;;7.73;;
4533;SDS011;2279;51.448;7.306;2022-08-19T09:28:50;10.40;;;9.00;;
4533;SDS011;2279;51.448;7.306;2022-08-19T09:31:18;13.47;;;12.17;;
4533;SDS011;2279;51.448;7.306;2022-08-19T09:33:45;14.63;;;13.13;;
4533;SDS011;2279;51.448;7.306;2022-08-19T09:36:12;15.87;;;14.27;;
4533;SDS011;2279;51.448;7.306;2022-08-19T09:38:38;15.00;;;11.63;;
4533;SDS011;2279;51.448;7.306;2022-08-19T09:41:11;20.10;;;16.07;;
4533;SDS011;2279;51.448;7.306;2022-08-19T09:43:38;14.87;;;13.23;;
4533;SDS011;2279;51.448;7.306;2022-08-19T09:46:05;18.63;;;15.10;;
4533;SDS011;2279;51.448;7.306;2022-08-19T09:48:34;18.60;;;16.60;;
4533;SDS011;2279;51.448;7.306;2022-08-19T09:51:13;17.33;;;15.70;;
4533;SDS011;2279;51.448;7.306;2022-08-19T09:53:44;21.37;;;15.00;;
4533;SDS011;2279;51.448;7.306;2022-08-19T09:56:11;18.53;;;16.60;;
4533;SDS011;2279;51.448;7.306;2022-08-19T09:58:38;20.23;;;14.03;;
4533;SDS011;2279;51.448;7.306;2022-08-19T10:01:04;13.90;;;12.40;;
4533;SDS011;2279;51.448;7.306;2022-08-19T10:03:31;14.40;;;13.00;;
4533;SDS011;2279;51.448;7.306;2022-08-19T10:05:58;14.33;;;12.33;;
4533;SDS011;2279;51.448;7.306;2022-08-19T10:08:27;14.67;;;13.13;;
4533;SDS011;2279;51.448;7.306;2022-08-19T10:10:54;17.77;;;15.60;;
4533;SDS011;2279;51.448;7.306;2022-08-19T10:13:21;17.33;;;15.70;;
4533;SDS011;2279;51.448;7.306;2022-08-19T10:15:49;16.20;;;14.53;;
4533;SDS011;2279;51.448;7.306;2022-08-19T10:18:16;14.00;;;12.60;;
4533;SDS011;2279;51.448;7.306;2022-08-19T10:20:42;16.33;;;14.60;;
4533;SDS011;2279;51.448;7.306;2022-08-19T10:23:10;14.27;;;12.90;;
4533;SDS011;2279;51.448;7.306;2022-08-19T10:25:36;12.50;;;11.00;;
4533;SDS011;2279;51.448;7.306;2022-08-19T10:28:02;12.00;;;10.77;;
4533;SDS011;2279;51.448;7.306;2022-08-19T10:30:29;13.23;;;11.17;;
4533;SDS011;2279;51.448;7.306;2022-08-19T10:32:55;13.60;;;10.43;;
4533;SDS011;2279;51.448;7.306;2022-08-19T10:35:21;10.00;;;9.00;;
4533;SDS011;2279;51.448;7.306;2022-08-19T10:37:47;10.60;;;9.63;;
4533;SDS011;2279;51.448;7.306;2022-08-19T10:40:13;10.57;;;9.33;;
4533;SDS011;2279;51.448;7.306;2022-08-19T10:42:39;10.23;;;9.33;;
4533;SDS011;2279;51.448;7.306;2022-08-19T10:45:05;9.53;;;8.73;;
4533;SDS011;2279;51.448;7.306;2022-08-19T10:47:32;10.47;;;9.37;;
4533;SDS011;2279;51.448;7.306;2022-08-19T10:49:58;11.20;;;9.83;;
4533;SDS011;2279;51.448;7.306;2022-08-19T10:52:44;11.00;;;10.00;;
4533;SDS011;2279;51.448;7.306;2022-08-19T10:55:11;9.83;;;8.93;;
4533;SDS011;2279;51.448;7.306;2022-08-19T10:57:56;11.87;;;10.67;;
4533;SDS011;2279;51.448;7.306;2022-08-19T11:00:22;9.93;;;9.03;;
4533;SDS011;2279;51.448;7.306;2022-08-19T11:02:49;10.70;;;9.57;;
4533;SDS011;2279;51.448;7.306;2022-08-19T11:05:15;11.57;;;10.37;;
4533;SDS011;2279;51.448;7.306;2022-08-19T11:07:42;8.80;;;8.07;;
4533;SDS011;2279;51.448;7.306;2022-08-19T11:10:10;9.00;;;8.27;;
4533;SDS011;2279;51.448;7.306;2022-08-19T11:12:37;11.03;;;7.50;;
4533;SDS011;2279;51.448;7.306;2022-08-19T11:15:07;7.80;;;7.20;;
4533;SDS011;2279;51.448;7.306;2022-08-19T11:17:36;15.90;;;9.83;;
4533;SDS011;2279;51.448;7.306;2022-08-19T11:20:05;8.27;;;7.00;;
4533;SDS011;2279;51.448;7.306;2022-08-19T11:22:32;8.33;;;7.53;;
4533;SDS011;2279;51.448;7.306;2022-08-19T11:24:58;9.70;;;8.60;;
4533;SDS011;2279;51.448;7.306;2022-08-19T11:27:24;10.47;;;9.57;;
4533;SDS011;2279;51.448;7.306;2022-08-19T11:29:50;7.93;;;7.13;;
4533;SDS011;2279;51.448;7.306;2022-08-19T11:32:17;9.27;;;8.47;;
4533;SDS011;2279;51.448;7.306;2022-08-19T11:34:43;11.53;;;10.17;;
4533;SDS011;2279;51.448;7.306;2022-08-19T11:37:09;7.53;;;6.83;;
4533;SDS011;2279;51.448;7.306;2022-08-19T11:39:35;11.20;;;10.13;;
4533;SDS011;2279;51.448;7.306;2022-08-19T11:42:02;11.40;;;8.47;;
4533;SDS011;2279;51.448;7.306;2022-08-19T11:44:48;11.60;;;10.40;;
4533;SDS011;2279;51.448;7.306;2022-08-19T11:47:14;10.53;;;9.53;;
4533;SDS011;2279;51.448;7.306;2022-08-19T11:49:40;10.60;;;9.70;;
4533;SDS011;2279;51.448;7.306;2022-08-19T11:52:07;12.77;;;10.70;;
4533;SDS011;2279;51.448;7.306;2022-08-19T11:54:33;11.17;;;10.10;;
4533;SDS011;2279;51.448;7.306;2022-08-19T11:56:59;11.43;;;10.13;;
4533;SDS011;2279;51.448;7.306;2022-08-19T11:59:26;10.97;;;9.80;;
4533;SDS011;2279;51.448;7.306;2022-08-19T12:01:52;10.23;;;9.17;;
4533;SDS011;2279;51.448;7.306;2022-08-19T12:04:18;10.07;;;9.17;;
4533;SDS011;2279;51.448;7.306;2022-08-19T12:06:44;10.80;;;9.23;;
4533;SDS011;2279;51.448;7.306;2022-08-19T12:09:10;10.77;;;9.77;;
4533;SDS011;2279;51.448;7.306;2022-08-19T12:11:36;9.63;;;8.83;;
4533;SDS011;2279;51.448;7.306;2022-08-19T12:14:03;10.03;;;9.10;;
4533;SDS011;2279;51.448;7.306;2022-08-19T12:16:29;11.97;;;10.77;;
4533;SDS011;2279;51.448;7.306;2022-08-19T12:18:57;9.20;;;8.40;;
4533;SDS011;2279;51.448;7.306;2022-08-19T12:21:28;8.57;;;7.73;;
4533;SDS011;2279;51.448;7.306;2022-08-19T12:23:56;8.30;;;7.50;;
4533;SDS011;2279;51.448;7.306;2022-08-19T12:26:22;9.63;;;8.63;;
4533;SDS011;2279;51.448;7.306;2022-08-19T12:28:49;8.23;;;7.50;;
4533;SDS011;2279;51.448;7.306;2022-08-19T12:31:15;9.27;;;8.00;;
4533;SDS011;2279;51.448;7.306;2022-08-19T12:33:42;9.10;;;8.17;;
4533;SDS011;2279;51.448;7.306;2022-08-19T12:36:09;11.87;;;8.07;;
4533;SDS011;2279;51.448;7.306;2022-08-19T12:38:36;7.53;;;6.93;;
4533;SDS011;2279;51.448;7.306;2022-08-19T12:41:03;8.10;;;7.13;;
4533;SDS011;2279;51.448;7.306;2022-08-19T12:43:31;6.57;;;6.07;;
4533;SDS011;2279;51.448;7.306;2022-08-19T12:45:57;7.63;;;6.27;;
4533;SDS011;2279;51.448;7.306;2022-08-19T12:48:23;9.37;;;6.50;;
4533;SDS011;2279;51.448;7.306;2022-08-19T12:50:49;6.57;;;6.07;;
4533;SDS011;2279;51.448;7.306;2022-08-19T12:53:15;6.67;;;6.17;;
4533;SDS011;2279;51.448;7.306;2022-08-19T12:55:42;6.63;;;5.60;;
4533;SDS011;2279;51.448;7.306;2022-08-19T12:58:08;7.17;;;5.70;;
4533;SDS011;2279;51.448;7.306;2022-08-19T13:00:35;5.00;;;4.60;;
4533;SDS011;2279;51.448;7.306;2022-08-19T13:03:01;5.50;;;5.07;;
4533;SDS011;2279;51.448;7.306;2022-08-19T13:05:28;5.50;;;5.10;;
4533;SDS011;2279;51.448;7.306;2022-08-19T13:07:55;6.60;;;6.00;;
4533;SDS011;2279;51.448;7.306;2022-08-19T13:10:22;10.20;;;5.60;;
4533;SDS011;2279;51.448;7.306;2022-08-19T13:12:50;6.20;;;5.70;;
4533;SDS011;2279;51.448;7.306;2022-08-19T13:15:16;9.13;;;4.83;;
4533;SDS011;2279;51.448;7.306;2022-08-19T13:17:45;5.80;;;5.30;;
4533;SDS011;2279;51.448;7.306;2022-08-19T13:20:13;5.20;;;4.70;;
4533;SDS011;2279;51.448;7.306;2022-08-19T13:22:39;3.90;;;3.60;;
4533;SDS011;2279;51.448;7.306;2022-08-19T13:25:05;4.50;;;4.10;;
4533;SDS011;2279;51.448;7.306;2022-08-19T13:27:31;4.37;;;4.07;;
4533;SDS011;2279;51.448;7.306;2022-08-19T13:29:57;5.50;;;5.10;;
4533;SDS011;2279;51.448;7.306;2022-08-19T13:32:42;5.10;;;4.70;;
4533;SDS011;2279;51.448;7.306;2022-08-19T13:35:27;5.20;;;4.80;;
4533;SDS011;2279;51.448;7.306;2022-08-19T13:37:53;4.57;;;4.20;;
4533;SDS011;2279;51.448;7.306;2022-08-19T13:40:20;6.47;;;4.60;;
4533;SDS011;2279;51.448;7.306;2022-08-19T13:42:49;4.23;;;3.93;;
4533;SDS011;2279;51.448;7.306;2022-08-19T13:45:16;4.70;;;4.30;;
4533;SDS011;2279;51.448;7.306;2022-08-19T13:47:45;5.20;;;4.83;;
4533;SDS011;2279;51.448;7.306;2022-08-19T13:50:14;5.00;;;4.60;;
4533;SDS011;2279;51.448;7.306;2022-08-19T13:52:41;4.70;;;4.30;;
4533;SDS011;2279;51.448;7.306;2022-08-19T13:55:08;6.63;;;5.30;;
4533;SDS011;2279;51.448;7.306;2022-08-19T13:57:35;12.20;;;5.20;;
4533;SDS011;2279;51.448;7.306;2022-08-19T14:00:04;5.13;;;4.83;;
4533;SDS011;2279;51.448;7.306;2022-08-19T14:02:30;4.83;;;4.53;;
4533;SDS011;2279;51.448;7.306;2022-08-19T14:04:56;5.00;;;4.60;;
4533;SDS011;2279;51.448;7.306;2022-08-19T14:07:23;6.07;;;4.83;;
4533;SDS011;2279;51.448;7.306;2022-08-19T14:09:50;5.53;;;4.83;;
4533;SDS011;2279;51.448;7.306;2022-08-19T14:12:19;5.33;;;4.70;;
4533;SDS011;2279;51.448;7.306;2022-08-19T14:14:46;4.43;;;4.13;;
4533;SDS011;2279;51.448;7.306;2022-08-19T14:17:12;6.30;;;4.17;;
4533;SDS011;2279;51.448;7.306;2022-08-19T14:19:38;10.77;;;4.57;;
4533;SDS011;2279;51.448;7.306;2022-08-19T14:22:04;4.10;;;3.80;;
4533;SDS011;2279;51.448;7.306;2022-08-19T14:24:30;3.90;;;3.60;;
4533;SDS011;2279;51.448;7.306;2022-08-19T14:26:57;3.83;;;3.63;;
4533;SDS011;2279;51.448;7.306;2022-08-19T14:29:23;4.67;;;4.30;;
4533;SDS011;2279;51.448;7.306;2022-08-19T14:31:49;4.83;;;4.53;;
4533;SDS011;2279;51.448;7.306;2022-08-19T14:34:15;4.50;;;4.10;;
4533;SDS011;2279;51.448;7.306;2022-08-19T14:36:41;4.10;;;3.80;;
4533;SDS011;2279;51.448;7.306;2022-08-19T14:39:08;4.30;;;3.90;;
4533;SDS011;2279;51.448;7.306;2022-08-19T14:41:34;4.57;;;4.17;;
4533;SDS011;2279;51.448;7.306;2022-08-19T14:44:00;5.03;;;4.57;;
4533;SDS011;2279;51.448;7.306;2022-08-19T14:46:27;4.83;;;4.33;;
4533;SDS011;2279;51.448;7.306;2022-08-19T14:48:54;5.23;;;4.73;;
4533;SDS011;2279;51.448;7.306;2022-08-19T14:51:21;4.90;;;4.37;;
4533;SDS011;2279;51.448;7.306;2022-08-19T14:53:48;4.60;;;4.30;;
4533;SDS011;2279;51.448;7.306;2022-08-19T14:56:15;4.37;;;4.07;;
4533;SDS011;2279;51.448;7.306;2022-08-19T14:58:41;4.87;;;3.50;;
4533;SDS011;2279;51.448;7.306;2022-08-19T15:01:08;3.87;;;3.67;;
4533;SDS011;2279;51.448;7.306;2022-08-19T15:03:34;4.70;;;4.30;;
4533;SDS011;2279;51.448;7.306;2022-08-19T15:06:00;5.17;;;4.67;;
4533;SDS011;2279;51.448;7.306;2022-08-19T15:08:27;4.50;;;4.10;;